sensor_id;sensor_type;location;lat;lon;timestamp;pressure;altitude;pressure_sealevel;temperature;humidity
55070;BME280;40967;52.070;8.596;2022-09-09T00:09:18;99770.81;;;15.78;78.43
55070;BME280;40967;52.070;8.596;2022-09-09T00:12:20;99798.84;;;15.92;78.35
55070;BME280;40967;52.070;8.596;2022-09-09T00:14:54;99782.59;;;15.87;78.49
55070;BME280;40967;52.070;8.596;2022-09-09T00:17:38;99790.94;;;15.90;78.60
55070;BME280;40967;52.070;8.596;2022-09-09T00:20:13;99793.69;;;15.90;78.82
55070;BME280;40967;52.070;8.596;2022-09-09T00:22:47;99785.81;;;15.89;78.79
55070;BME280;40967;52.070;8.596;2022-09-09T00:28:14;99788.88;;;15.87;78.97
55070;BME280;40967;52.070;8.596;2022-09-09T00:30:42;99793.53;;;15.87;79.13
55070;BME280;40967;52.070;8.596;2022-09-09T00:33:11;99791.59;;;15.87;78.94
55070;BME280;40967;52.070;8.596;2022-09-09T00:35:57;99793.69;;;15.90;79.10
55070;BME280;40967;52.070;8.596;2022-09-09T00:38:27;99798.84;;;15.92;79.29
55070;BME280;40967;52.070;8.596;2022-09-09T00:44:00;99788.06;;;15.96;79.49
55070;BME280;40967;52.070;8.596;2022-09-09T00:57:35;99783.22;;;16.01;79.47
55070;BME280;40967;52.070;8.596;2022-09-09T01:05:29;99775.81;;;16.02;79.46
55070;BME280;40967;52.070;8.596;2022-09-09T01:08:01;99775.03;;;16.01;79.40
55070;BME280;40967;52.070;8.596;2022-09-09T01:10:49;99774.19;;;16.01;79.47
55070;BME280;40967;52.070;8.596;2022-09-09T01:13:31;99778.41;;;15.98;79.74
55070;BME280;40967;52.070;8.596;2022-09-09T01:16:01;99774.38;;;15.96;80.06
55070;BME280;40967;52.070;8.596;2022-09-09T01:18:36;99775.03;;;15.93;80.39
55070;BME280;40967;52.070;8.596;2022-09-09T01:21:09;99761.69;;;15.82;80.51
55070;BME280;40967;52.070;8.596;2022-09-09T01:26:48;99775.03;;;15.93;80.54
55070;BME280;40967;52.070;8.596;2022-09-09T01:29:17;99780.50;;;15.93;80.71
55070;BME280;40967;52.070;8.596;2022-09-09T01:34:17;99786.78;;;15.93;80.48
55070;BME280;40967;52.070;8.596;2022-09-09T01:39:24;99787.06;;;15.91;80.73
55070;BME280;40967;52.070;8.596;2022-09-09T01:41:51;99780.00;;;15.90;80.57
55070;BME280;40967;52.070;8.596;2022-09-09T01:44:18;99779.53;;;15.88;80.81
55070;BME280;40967;52.070;8.596;2022-09-09T01:46:44;99779.53;;;15.88;80.94
55070;BME280;40967;52.070;8.596;2022-09-09T01:49:10;99784.19;;;15.88;81.03
55070;BME280;40967;52.070;8.596;2022-09-09T01:51:37;99777.44;;;15.85;80.88
55070;BME280;40967;52.070;8.596;2022-09-09T01:54:05;99786.28;;;15.91;80.51
55070;BME280;40967;52.070;8.596;2022-09-09T01:59:48;99785.81;;;15.98;80.32
55070;BME280;40967;52.070;8.596;2022-09-09T02:05:38;99774.69;;;16.03;80.21
55070;BME280;40967;52.070;8.596;2022-09-09T02:08:10;99780.66;;;16.05;80.02
55070;BME280;40967;52.070;8.596;2022-09-09T02:10:50;99779.22;;;16.07;79.90
55070;BME280;40967;52.070;8.596;2022-09-09T02:13:19;99778.88;;;16.09;79.68
55070;BME280;40967;52.070;8.596;2022-09-09T02:15:56;99781.28;;;16.10;79.65
55070;BME280;40967;52.070;8.596;2022-09-09T02:18:27;99782.72;;;16.08;79.49
55070;BME280;40967;52.070;8.596;2022-09-09T02:20:56;99781.28;;;16.10;79.65
55070;BME280;40967;52.070;8.596;2022-09-09T02:23:23;99781.78;;;16.04;79.72
55070;BME280;40967;52.070;8.596;2022-09-09T02:25:49;99778.41;;;15.98;79.64
55070;BME280;40967;52.070;8.596;2022-09-09T02:28:17;99790.28;;;16.02;79.60
55070;BME280;40967;52.070;8.596;2022-09-09T02:30:48;99792.88;;;15.99;79.61
55070;BME280;40967;52.070;8.596;2022-09-09T02:33:24;99790.94;;;15.99;79.43
55070;BME280;40967;52.070;8.596;2022-09-09T02:35:52;99791.13;;;15.94;79.43
55070;BME280;40967;52.070;8.596;2022-09-09T02:38:20;99789.34;;;15.89;79.41
55070;BME280;40967;52.070;8.596;2022-09-09T02:40:47;99795.28;;;15.91;79.44
55070;BME280;40967;52.070;8.596;2022-09-09T02:43:14;99796.09;;;15.92;79.21
55070;BME280;40967;52.070;8.596;2022-09-09T02:45:47;99796.09;;;15.92;79.25
55070;BME280;40967;52.070;8.596;2022-09-09T02:49:11;99792.53;;;15.91;79.28
55070;BME280;40967;52.070;8.596;2022-09-09T02:51:40;99796.91;;;15.93;79.31
55070;BME280;40967;52.070;8.596;2022-09-09T02:54:17;99797.41;;;15.95;79.22
55070;BME280;40967;52.070;8.596;2022-09-09T02:56:51;99795.78;;;15.93;79.18
55070;BME280;40967;52.070;8.596;2022-09-09T02:59:18;99793.03;;;15.93;79.07
55070;BME280;40967;52.070;8.596;2022-09-09T03:01:43;99798.66;;;15.97;79.00
55070;BME280;40967;52.070;8.596;2022-09-09T03:04:09;99801.91;;;15.99;79.19
55070;BME280;40967;52.070;8.596;2022-09-09T03:06:34;99805.75;;;15.98;79.18
55070;BME280;40967;52.070;8.596;2022-09-09T03:09:00;99805.44;;;16.00;79.14
55070;BME280;40967;52.070;8.596;2022-09-09T03:11:27;99800.94;;;16.04;78.99
55070;BME280;40967;52.070;8.596;2022-09-09T03:13:53;99804.13;;;16.06;78.84
55070;BME280;40967;52.070;8.596;2022-09-09T03:16:21;99811.25;;;16.07;78.83
55070;BME280;40967;52.070;8.596;2022-09-09T03:18:46;99804.13;;;16.06;78.77
55070;BME280;40967;52.070;8.596;2022-09-09T03:21:12;99807.03;;;16.09;78.56
55070;BME280;40967;52.070;8.596;2022-09-09T03:23:37;99805.59;;;16.12;78.13
55070;BME280;40967;52.070;8.596;2022-09-09T03:26:02;99807.19;;;16.13;78.04
55070;BME280;40967;52.070;8.596;2022-09-09T03:28:28;99798.66;;;16.14;77.81
55070;BME280;40967;52.070;8.596;2022-09-09T03:31:04;99796.72;;;16.15;77.88
55070;BME280;40967;52.070;8.596;2022-09-09T03:33:29;99792.91;;;16.07;77.58
55070;BME280;40967;52.070;8.596;2022-09-09T03:35:56;99801.09;;;16.16;77.49
55070;BME280;40967;52.070;8.596;2022-09-09T03:38:23;99799.47;;;16.15;77.24
55070;BME280;40967;52.070;8.596;2022-09-09T03:40:57;99801.09;;;16.16;77.51
55070;BME280;40967;52.070;8.596;2022-09-09T03:43:24;99790.28;;;16.11;77.59
55070;BME280;40967;52.070;8.596;2022-09-09T03:45:50;99800.94;;;16.12;78.31
55070;BME280;40967;52.070;8.596;2022-09-09T03:48:16;99796.09;;;16.09;78.06
55070;BME280;40967;52.070;8.596;2022-09-09T03:50:50;99781.13;;;16.07;78.32
55070;BME280;40967;52.070;8.596;2022-09-09T03:53:18;99795.63;;;16.16;78.13
55070;BME280;40967;52.070;8.596;2022-09-09T03:55:48;99798.81;;;16.18;78.23
55070;BME280;40967;52.070;8.596;2022-09-09T03:58:15;99795.44;;;16.21;78.14
55070;BME280;40967;52.070;8.596;2022-09-09T04:00:41;99791.56;;;16.22;78.30
55070;BME280;40967;52.070;8.596;2022-09-09T04:03:10;99784.00;;;16.19;78.34
55070;BME280;40967;52.070;8.596;2022-09-09T04:05:36;99792.72;;;16.21;78.49
55070;BME280;40967;52.070;8.596;2022-09-09T04:08:07;99779.97;;;16.16;78.62
55070;BME280;40967;52.070;8.596;2022-09-09T04:10:33;99799.78;;;16.22;78.80
55070;BME280;40967;52.070;8.596;2022-09-09T04:12:59;99799.78;;;16.22;79.02
55070;BME280;40967;52.070;8.596;2022-09-09T04:15:25;99794.97;;;16.19;79.18
55070;BME280;40967;52.070;8.596;2022-09-09T04:17:50;99792.72;;;16.21;79.17
55070;BME280;40967;52.070;8.596;2022-09-09T04:20:16;99793.34;;;16.18;79.64
55070;BME280;40967;52.070;8.596;2022-09-09T04:22:41;99801.88;;;16.16;80.09
55070;BME280;40967;52.070;8.596;2022-09-09T04:25:07;99798.50;;;16.11;81.00
55070;BME280;40967;52.070;8.596;2022-09-09T04:27:33;99802.88;;;16.03;81.24
55070;BME280;40967;52.070;8.596;2022-09-09T04:29:58;99801.88;;;16.08;81.52
55070;BME280;40967;52.070;8.596;2022-09-09T04:32:24;99810.59;;;16.10;81.60
55070;BME280;40967;52.070;8.596;2022-09-09T04:34:51;99802.84;;;16.12;81.42
55070;BME280;40967;52.070;8.596;2022-09-09T04:37:17;99805.28;;;16.13;81.32
55070;BME280;40967;52.070;8.596;2022-09-09T04:39:42;99808.81;;;16.14;81.47
55070;BME280;40967;52.070;8.596;2022-09-09T04:42:07;99810.75;;;16.13;81.95
55070;BME280;40967;52.070;8.596;2022-09-09T04:44:33;99813.00;;;16.11;82.40
55070;BME280;40967;52.070;8.596;2022-09-09T04:46:58;99813.66;;;16.08;83.08
55070;BME280;40967;52.070;8.596;2022-09-09T04:49:24;99809.31;;;16.07;84.02
55070;BME280;40967;52.070;8.596;2022-09-09T04:51:49;99801.91;;;15.99;84.85
55070;BME280;40967;52.070;8.596;2022-09-09T04:54:15;99811.25;;;15.98;85.82
55070;BME280;40967;52.070;8.596;2022-09-09T04:56:41;99793.84;;;15.94;85.86
55070;BME280;40967;52.070;8.596;2022-09-09T04:59:07;99810.25;;;16.03;85.88
55070;BME280;40967;52.070;8.596;2022-09-09T05:01:33;99813.16;;;16.06;85.58
55070;BME280;40967;52.070;8.596;2022-09-09T05:03:58;99805.75;;;16.07;85.88
55070;BME280;40967;52.070;8.596;2022-09-09T05:06:24;99802.53;;;16.05;85.71
55070;BME280;40967;52.070;8.596;2022-09-09T05:08:49;99818.47;;;16.11;85.63
55070;BME280;40967;52.070;8.596;2022-09-09T05:11:31;99817.81;;;16.14;85.51
55070;BME280;40967;52.070;8.596;2022-09-09T05:13:57;99821.03;;;16.16;85.38
55070;BME280;40967;52.070;8.596;2022-09-09T05:16:23;99817.66;;;16.11;85.45
55070;BME280;40967;52.070;8.596;2022-09-09T05:18:49;99833.94;;;16.16;85.44
55070;BME280;40967;52.070;8.596;2022-09-09T05:21:17;99825.72;;;16.16;85.51
55070;BME280;40967;52.070;8.596;2022-09-09T05:23:42;99830.56;;;16.19;85.46
55070;BME280;40967;52.070;8.596;2022-09-09T05:26:12;99825.56;;;16.21;85.32
55070;BME280;40967;52.070;8.596;2022-09-09T05:28:38;99818.47;;;16.20;85.62
55070;BME280;40967;52.070;8.596;2022-09-09T05:31:08;99814.78;;;16.16;85.67
55070;BME280;40967;52.070;8.596;2022-09-09T05:33:35;99821.53;;;16.18;85.50
55070;BME280;40967;52.070;8.596;2022-09-09T05:36:03;99818.28;;;16.25;85.52
55070;BME280;40967;52.070;8.596;2022-09-09T05:38:30;99822.81;;;16.29;85.39
55070;BME280;40967;52.070;8.596;2022-09-09T05:40:56;99824.41;;;16.30;85.45
55070;BME280;40967;52.070;8.596;2022-09-09T05:43:22;99824.91;;;16.32;85.67
55070;BME280;40967;52.070;8.596;2022-09-09T05:45:58;99826.34;;;16.30;86.02
55070;BME280;40967;52.070;8.596;2022-09-09T05:48:27;99833.91;;;16.33;86.16
55070;BME280;40967;52.070;8.596;2022-09-09T05:50:53;99821.00;;;16.33;86.05
55070;BME280;40967;52.070;8.596;2022-09-09T05:53:19;99828.59;;;16.36;86.03
55070;BME280;40967;52.070;8.596;2022-09-09T05:55:45;99805.41;;;16.25;86.68
55070;BME280;40967;52.070;8.596;2022-09-09T05:58:11;99827.94;;;16.39;86.66
55070;BME280;40967;52.070;8.596;2022-09-09T06:00:36;99826.50;;;16.42;86.30
55070;BME280;40967;52.070;8.596;2022-09-09T06:03:02;99826.03;;;16.48;86.44
55070;BME280;40967;52.070;8.596;2022-09-09T06:05:28;99818.94;;;16.47;86.59
55070;BME280;40967;52.070;8.596;2022-09-09T06:07:54;99831.00;;;16.55;86.59
55070;BME280;40967;52.070;8.596;2022-09-09T06:10:20;99832.75;;;16.59;86.76
55070;BME280;40967;52.070;8.596;2022-09-09T06:12:45;99817.13;;;16.60;86.58
55070;BME280;40967;52.070;8.596;2022-09-09T06:15:10;99824.06;;;16.66;87.19
55070;BME280;40967;52.070;8.596;2022-09-09T06:17:36;99825.34;;;16.68;87.38
55070;BME280;40967;52.070;8.596;2022-09-09T06:20:02;99825.34;;;16.68;87.49
55070;BME280;40967;52.070;8.596;2022-09-09T06:22:28;99822.94;;;16.67;87.54
55070;BME280;40967;52.070;8.596;2022-09-09T06:24:53;99824.38;;;16.73;87.68
55070;BME280;40967;52.070;8.596;2022-09-09T06:27:18;99820.31;;;16.79;87.55
55070;BME280;40967;52.070;8.596;2022-09-09T06:29:44;99809.16;;;16.84;87.73
55070;BME280;40967;52.070;8.596;2022-09-09T06:32:09;99812.88;;;16.88;87.64
55070;BME280;40967;52.070;8.596;2022-09-09T06:34:34;99813.84;;;16.92;87.37
55070;BME280;40967;52.070;8.596;2022-09-09T06:37:01;99787.06;;;16.89;87.19
55070;BME280;40967;52.070;8.596;2022-09-09T06:39:26;99810.88;;;17.06;86.98
55070;BME280;40967;52.070;8.596;2022-09-09T06:41:52;99815.34;;;17.10;86.78
55070;BME280;40967;52.070;8.596;2022-09-09T06:44:18;99815.97;;;17.16;86.31
55070;BME280;40967;52.070;8.596;2022-09-09T06:46:44;99814.81;;;17.25;86.43
55070;BME280;40967;52.070;8.596;2022-09-09T06:49:13;99817.78;;;17.41;85.59
55070;BME280;40967;52.070;8.596;2022-09-09T06:51:39;99816.91;;;17.57;85.29
55070;BME280;40967;52.070;8.596;2022-09-09T06:54:11;99821.94;;;17.76;83.88
55070;BME280;40967;52.070;8.596;2022-09-09T06:56:39;99818.63;;;17.91;82.98
55070;BME280;40967;52.070;8.596;2022-09-09T06:59:09;99828.16;;;18.05;83.04
55070;BME280;40967;52.070;8.596;2022-09-09T07:01:36;99828.69;;;18.20;82.40
55070;BME280;40967;52.070;8.596;2022-09-09T07:04:03;99826.25;;;18.39;82.37
55070;BME280;40967;52.070;8.596;2022-09-09T07:06:34;99829.94;;;18.63;81.31
55070;BME280;40967;52.070;8.596;2022-09-09T07:09:05;99827.00;;;18.80;79.64
55070;BME280;40967;52.070;8.596;2022-09-09T07:11:33;99833.19;;;18.89;77.98
55070;BME280;40967;52.070;8.596;2022-09-09T07:14:00;99841.34;;;18.98;76.84
55070;BME280;40967;52.070;8.596;2022-09-09T07:16:26;99832.41;;;19.01;76.02
55070;BME280;40967;52.070;8.596;2022-09-09T07:18:53;99836.91;;;19.05;75.53
55070;BME280;40967;52.070;8.596;2022-09-09T07:21:23;99839.44;;;19.10;75.05
55070;BME280;40967;52.070;8.596;2022-09-09T07:23:49;99847.31;;;19.00;75.20
55070;BME280;40967;52.070;8.596;2022-09-09T07:26:17;99841.69;;;18.96;75.15
55070;BME280;40967;52.070;8.596;2022-09-09T07:28:45;99853.59;;;18.88;74.92
55070;BME280;40967;52.070;8.596;2022-09-09T07:31:22;99849.44;;;18.82;75.56
55070;BME280;40967;52.070;8.596;2022-09-09T07:33:48;99851.50;;;18.85;75.71
55070;BME280;40967;52.070;8.596;2022-09-09T07:36:14;99844.41;;;18.84;75.85
55070;BME280;40967;52.070;8.596;2022-09-09T07:38:42;99845.22;;;18.85;75.95
55070;BME280;40967;52.070;8.596;2022-09-09T07:41:10;99855.06;;;18.86;75.83
55070;BME280;40967;52.070;8.596;2022-09-09T07:43:40;99861.50;;;18.90;75.67
55070;BME280;40967;52.070;8.596;2022-09-09T07:46:07;99850.50;;;18.90;75.90
55070;BME280;40967;52.070;8.596;2022-09-09T07:48:33;99844.41;;;18.84;75.82
55070;BME280;40967;52.070;8.596;2022-09-09T07:51:14;99849.78;;;18.81;75.67
55070;BME280;40967;52.070;8.596;2022-09-09T07:53:44;99844.50;;;18.76;75.92
55070;BME280;40967;52.070;8.596;2022-09-09T07:56:13;99850.59;;;18.81;75.87
55070;BME280;40967;52.070;8.596;2022-09-09T07:58:41;99837.22;;;18.80;75.70
55070;BME280;40967;52.070;8.596;2022-09-09T08:01:30;99846.00;;;18.85;75.22
55070;BME280;40967;52.070;8.596;2022-09-09T08:04:00;99847.50;;;18.83;75.32
55070;BME280;40967;52.070;8.596;2022-09-09T08:06:28;99842.56;;;18.76;75.05
55070;BME280;40967;52.070;8.596;2022-09-09T08:08:54;99834.09;;;18.69;75.47
55070;BME280;40967;52.070;8.596;2022-09-09T08:11:21;99832.34;;;18.65;75.73
55070;BME280;40967;52.070;8.596;2022-09-09T08:13:48;99834.88;;;18.70;75.90
55070;BME280;40967;52.070;8.596;2022-09-09T08:16:19;99840.38;;;18.70;75.74
55070;BME280;40967;52.070;8.596;2022-09-09T08:18:49;99831.78;;;18.71;75.36
55070;BME280;40967;52.070;8.596;2022-09-09T08:21:23;99836.53;;;18.83;75.34
55070;BME280;40967;52.070;8.596;2022-09-09T08:23:51;99840.41;;;18.94;75.32
55070;BME280;40967;52.070;8.596;2022-09-09T08:26:22;99838.03;;;19.04;75.03
55070;BME280;40967;52.070;8.596;2022-09-09T08:28:50;99832.66;;;19.20;74.57
55070;BME280;40967;52.070;8.596;2022-09-09T08:31:23;99836.84;;;19.38;74.07
55070;BME280;40967;52.070;8.596;2022-09-09T08:33:49;99843.91;;;19.51;73.24
55070;BME280;40967;52.070;8.596;2022-09-09T08:36:18;99842.44;;;19.66;72.59
55070;BME280;40967;52.070;8.596;2022-09-09T08:38:48;99852.41;;;19.82;71.35
55070;BME280;40967;52.070;8.596;2022-09-09T08:43:47;99844.75;;;20.27;69.90
55070;BME280;40967;52.070;8.596;2022-09-09T08:46:26;99849.25;;;20.48;69.24
55070;BME280;40967;52.070;8.596;2022-09-09T08:49:03;99859.25;;;20.68;68.65
55070;BME280;40967;52.070;8.596;2022-09-09T08:51:32;99851.91;;;20.87;67.49
55070;BME280;40967;52.070;8.596;2022-09-09T08:53:59;99856.59;;;20.99;66.92
55070;BME280;40967;52.070;8.596;2022-09-09T08:56:27;99848.47;;;21.06;66.66
55070;BME280;40967;52.070;8.596;2022-09-09T08:58:55;99842.53;;;21.19;65.79
55070;BME280;40967;52.070;8.596;2022-09-09T09:12:10;99850.53;;;22.06;60.62
55070;BME280;40967;52.070;8.596;2022-09-09T09:14:40;99848.44;;;22.18;60.08
55070;BME280;40967;52.070;8.596;2022-09-09T09:17:11;99850.75;;;22.16;59.64
55070;BME280;40967;52.070;8.596;2022-09-09T09:19:39;99856.34;;;22.20;59.43
55070;BME280;40967;52.070;8.596;2022-09-09T09:27:24;99856.38;;;22.39;58.13
55070;BME280;40967;52.070;8.596;2022-09-09T09:29:54;99862.03;;;22.46;58.48
55070;BME280;40967;52.070;8.596;2022-09-09T09:32:30;99853.97;;;22.37;58.05
55070;BME280;40967;52.070;8.596;2022-09-09T09:35:06;99848.72;;;22.13;58.41
55070;BME280;40967;52.070;8.596;2022-09-09T09:37:35;99847.69;;;22.02;58.46
55070;BME280;40967;52.070;8.596;2022-09-09T09:40:11;99842.00;;;21.95;58.91
55070;BME280;40967;52.070;8.596;2022-09-09T09:42:38;99849.91;;;21.97;58.54
55070;BME280;40967;52.070;8.596;2022-09-09T09:45:41;99845.63;;;21.80;58.41
55070;BME280;40967;52.070;8.596;2022-09-09T09:48:11;99851.06;;;21.61;58.52
55070;BME280;40967;52.070;8.596;2022-09-09T09:53:26;99850.16;;;21.57;58.50
55070;BME280;40967;52.070;8.596;2022-09-09T09:56:01;99857.72;;;21.60;58.14
55070;BME280;40967;52.070;8.596;2022-09-09T09:58:30;99865.31;;;21.63;58.16
55070;BME280;40967;52.070;8.596;2022-09-09T10:00:57;99864.63;;;21.35;58.13
55070;BME280;40967;52.070;8.596;2022-09-09T10:03:35;99869.31;;;21.19;58.21
55070;BME280;40967;52.070;8.596;2022-09-09T10:06:05;99870.03;;;21.00;58.51
55070;BME280;40967;52.070;8.596;2022-09-09T10:08:34;99866.59;;;20.91;58.76
55070;BME280;40967;52.070;8.596;2022-09-09T10:14:00;99861.44;;;20.90;59.30
55070;BME280;40967;52.070;8.596;2022-09-09T10:24:53;99854.25;;;21.32;57.77
55070;BME280;40967;52.070;8.596;2022-09-09T10:27:42;99845.09;;;21.43;56.17
55070;BME280;40967;52.070;8.596;2022-09-09T10:30:17;99845.38;;;21.54;55.77
55070;BME280;40967;52.070;8.596;2022-09-09T10:33:04;99846.47;;;21.84;55.64
55070;BME280;40967;52.070;8.596;2022-09-09T10:38:46;99835.75;;;22.36;54.11
55070;BME280;40967;52.070;8.596;2022-09-09T10:44:18;99834.06;;;22.89;52.77
55070;BME280;40967;52.070;8.596;2022-09-09T10:49:44;99836.00;;;23.56;51.61
55070;BME280;40967;52.070;8.596;2022-09-09T10:55:20;99833.66;;;23.58;50.72
55070;BME280;40967;52.070;8.596;2022-09-09T10:57:52;99834.31;;;23.26;50.69
55070;BME280;40967;52.070;8.596;2022-09-09T11:03:02;99840.72;;;22.85;50.94
55070;BME280;40967;52.070;8.596;2022-09-09T11:05:41;99842.50;;;22.55;51.52
55070;BME280;40967;52.070;8.596;2022-09-09T11:13:42;99837.22;;;22.30;52.15
55070;BME280;40967;52.070;8.596;2022-09-09T11:16:40;99845.69;;;22.57;52.26
55070;BME280;40967;52.070;8.596;2022-09-09T11:19:24;99842.22;;;22.82;51.44
55070;BME280;40967;52.070;8.596;2022-09-09T11:21:54;99833.19;;;22.85;50.80
55070;BME280;40967;52.070;8.596;2022-09-09T11:24:44;99830.75;;;23.03;50.25
55070;BME280;40967;52.070;8.596;2022-09-09T11:27:47;99832.69;;;23.02;50.43
55070;BME280;40967;52.070;8.596;2022-09-09T11:38:16;99828.72;;;23.71;49.07
55070;BME280;40967;52.070;8.596;2022-09-09T11:40:44;99827.31;;;23.84;48.66
55070;BME280;40967;52.070;8.596;2022-09-09T11:45:40;99832.97;;;23.91;49.13
55070;BME280;40967;52.070;8.596;2022-09-09T11:51:36;99836.63;;;24.25;47.65
55070;BME280;40967;52.070;8.596;2022-09-09T11:54:29;99832.38;;;24.34;47.24
55070;BME280;40967;52.070;8.596;2022-09-09T11:56:55;99837.28;;;24.15;47.46
55070;BME280;40967;52.070;8.596;2022-09-09T11:59:29;99830.81;;;24.04;47.70
55070;BME280;40967;52.070;8.596;2022-09-09T12:02:01;99827.50;;;23.69;48.02
55070;BME280;40967;52.070;8.596;2022-09-09T12:04:35;99831.59;;;23.52;48.58
55070;BME280;40967;52.070;8.596;2022-09-09T12:07:03;99832.47;;;23.56;48.69
55070;BME280;40967;52.070;8.596;2022-09-09T12:12:37;99825.84;;;23.38;48.42
55070;BME280;40967;52.070;8.596;2022-09-09T12:17:44;99823.31;;;23.07;48.25
55070;BME280;40967;52.070;8.596;2022-09-09T12:23:21;99830.50;;;23.11;47.79
55070;BME280;40967;52.070;8.596;2022-09-09T12:35:04;99805.16;;;23.84;44.42
55070;BME280;40967;52.070;8.596;2022-09-09T12:37:46;99796.56;;;23.93;44.08
55070;BME280;40967;52.070;8.596;2022-09-09T12:40:25;99811.91;;;24.13;44.21
55070;BME280;40967;52.070;8.596;2022-09-09T12:42:56;99813.94;;;24.16;44.05
55070;BME280;40967;52.070;8.596;2022-09-09T12:45:31;99814.44;;;24.25;44.07
55070;BME280;40967;52.070;8.596;2022-09-09T12:48:11;99811.88;;;24.42;43.79
55070;BME280;40967;52.070;8.596;2022-09-09T12:50:53;99806.34;;;24.42;43.43
55070;BME280;40967;52.070;8.596;2022-09-09T12:56:02;99801.31;;;24.92;43.19
55070;BME280;40967;52.070;8.596;2022-09-09T12:58:35;99801.94;;;25.15;43.29
55070;BME280;40967;52.070;8.596;2022-09-09T13:01:17;99798.50;;;25.32;43.32
55070;BME280;40967;52.070;8.596;2022-09-09T13:03:59;99791.00;;;25.36;43.03
55070;BME280;40967;52.070;8.596;2022-09-09T13:06:35;99783.41;;;25.29;43.07
55070;BME280;40967;52.070;8.596;2022-09-09T13:09:21;99790.56;;;25.30;43.02
55070;BME280;40967;52.070;8.596;2022-09-09T13:12:22;99792.72;;;25.04;43.53
55070;BME280;40967;52.070;8.596;2022-09-09T13:14:53;99787.66;;;24.73;43.84
55070;BME280;40967;52.070;8.596;2022-09-09T13:17:25;99780.63;;;24.45;44.20
55070;BME280;40967;52.070;8.596;2022-09-09T13:19:51;99773.75;;;24.32;44.43
55070;BME280;40967;52.070;8.596;2022-09-09T13:22:34;99789.50;;;24.25;44.96
55070;BME280;40967;52.070;8.596;2022-09-09T13:25:27;99773.16;;;24.16;45.20
55070;BME280;40967;52.070;8.596;2022-09-09T13:27:59;99776.78;;;23.91;45.69
55070;BME280;40967;52.070;8.596;2022-09-09T13:33:38;99776.44;;;23.66;46.03
55070;BME280;40967;52.070;8.596;2022-09-09T13:36:13;99770.63;;;23.48;46.12
55070;BME280;40967;52.070;8.596;2022-09-09T13:39:17;99772.38;;;23.34;46.63
55070;BME280;40967;52.070;8.596;2022-09-09T13:44:50;99770.91;;;23.40;46.54
55070;BME280;40967;52.070;8.596;2022-09-09T13:47:20;99778.50;;;23.46;46.18
55070;BME280;40967;52.070;8.596;2022-09-09T13:49:46;99774.00;;;23.35;45.06
55070;BME280;40967;52.070;8.596;2022-09-09T13:52:13;99781.06;;;23.32;45.50
55070;BME280;40967;52.070;8.596;2022-09-09T13:54:59;99768.06;;;23.36;45.62
55070;BME280;40967;52.070;8.596;2022-09-09T13:57:26;99778.72;;;23.60;45.43
55070;BME280;40967;52.070;8.596;2022-09-09T13:59:54;99756.56;;;23.90;45.56
55070;BME280;40967;52.070;8.596;2022-09-09T14:02:22;99772.84;;;24.25;43.92
55070;BME280;40967;52.070;8.596;2022-09-09T14:04:48;99771.84;;;24.40;43.04
55070;BME280;40967;52.070;8.596;2022-09-09T14:07:24;99772.00;;;24.54;42.83
55070;BME280;40967;52.070;8.596;2022-09-09T14:10:16;99773.75;;;24.69;42.44
55070;BME280;40967;52.070;8.596;2022-09-09T14:12:46;99780.31;;;24.91;42.61
55070;BME280;40967;52.070;8.596;2022-09-09T14:15:14;99775.38;;;25.14;41.82
55070;BME280;40967;52.070;8.596;2022-09-09T14:17:44;99771.06;;;25.23;41.91
55070;BME280;40967;52.070;8.596;2022-09-09T14:20:14;99770.09;;;25.49;41.76
55070;BME280;40967;52.070;8.596;2022-09-09T14:23:12;99776.03;;;25.51;41.17
55070;BME280;40967;52.070;8.596;2022-09-09T14:26:23;99774.03;;;25.44;41.91
55070;BME280;40967;52.070;8.596;2022-09-09T14:28:50;99774.50;;;25.57;41.70
55070;BME280;40967;52.070;8.596;2022-09-09T14:31:23;99770.25;;;25.77;41.43
55070;BME280;40967;52.070;8.596;2022-09-09T14:33:55;99772.72;;;25.93;40.97
55070;BME280;40967;52.070;8.596;2022-09-09T14:36:24;99768.34;;;25.92;40.59
55070;BME280;40967;52.070;8.596;2022-09-09T14:38:57;99758.78;;;25.89;40.00
55070;BME280;40967;52.070;8.596;2022-09-09T14:41:30;99764.59;;;25.63;40.15
55070;BME280;40967;52.070;8.596;2022-09-09T14:44:23;99758.03;;;25.31;40.63
55070;BME280;40967;52.070;8.596;2022-09-09T14:46:59;99767.59;;;24.86;41.39
55070;BME280;40967;52.070;8.596;2022-09-09T14:49:35;99747.75;;;24.47;41.89
55070;BME280;40967;52.070;8.596;2022-09-09T14:52:05;99764.59;;;24.28;42.50
55070;BME280;40967;52.070;8.596;2022-09-09T14:54:56;99763.53;;;24.07;42.89
55070;BME280;40967;52.070;8.596;2022-09-09T14:57:25;99758.25;;;23.98;42.67
55070;BME280;40967;52.070;8.596;2022-09-09T15:00:16;99750.25;;;23.93;43.07
55070;BME280;40967;52.070;8.596;2022-09-09T15:02:47;99757.31;;;23.87;42.95
55070;BME280;40967;52.070;8.596;2022-09-09T15:05:29;99756.38;;;23.76;43.85
55070;BME280;40967;52.070;8.596;2022-09-09T15:08:05;99755.75;;;23.60;43.55
55070;BME280;40967;52.070;8.596;2022-09-09T15:10:36;99761.09;;;23.46;44.16
55070;BME280;40967;52.070;8.596;2022-09-09T15:13:30;99760.72;;;23.25;44.05
55070;BME280;40967;52.070;8.596;2022-09-09T15:16:48;99772.13;;;23.20;43.95
55070;BME280;40967;52.070;8.596;2022-09-09T15:19:22;99775.00;;;23.27;43.94
55070;BME280;40967;52.070;8.596;2022-09-09T15:21:50;99766.97;;;23.18;44.43
55070;BME280;40967;52.070;8.596;2022-09-09T15:24:19;99785.06;;;23.12;44.91
55070;BME280;40967;52.070;8.596;2022-09-09T15:26:50;99781.00;;;23.06;44.97
55070;BME280;40967;52.070;8.596;2022-09-09T15:29:41;99782.72;;;23.14;45.08
55070;BME280;40967;52.070;8.596;2022-09-09T15:32:13;99774.88;;;23.20;45.26
55070;BME280;40967;52.070;8.596;2022-09-09T15:35:00;99780.31;;;23.35;45.54
55070;BME280;40967;52.070;8.596;2022-09-09T15:37:45;99766.66;;;23.49;44.75
55070;BME280;40967;52.070;8.596;2022-09-09T15:40:14;99770.84;;;23.63;44.92
55070;BME280;40967;52.070;8.596;2022-09-09T15:46:41;99780.25;;;23.58;45.01